createdAt,value
2022-11-25T00:01:47.620Z,0.93
2022-11-25T00:04:15.979Z,1.30
2022-11-25T00:06:45.921Z,1.00
2022-11-25T00:09:14.635Z,1.10
2022-11-25T00:11:44.172Z,1.17
2022-11-25T00:14:16.301Z,0.80
2022-11-25T00:16:48.327Z,1.20
2022-11-25T00:19:17.523Z,1.10
2022-11-25T00:21:47.554Z,0.90
2022-11-25T00:24:17.473Z,1.08
2022-11-25T00:26:47.089Z,1.63
2022-11-25T00:29:15.793Z,1.30
2022-11-25T00:31:47.182Z,1.50
2022-11-25T00:34:17.303Z,1.00
2022-11-25T00:36:46.986Z,1.40
2022-11-25T00:39:16.929Z,1.30
2022-11-25T00:42:04.167Z,1.25
2022-11-25T00:44:40.761Z,1.10
2022-11-25T00:47:11.363Z,1.25
2022-11-25T00:49:41.352Z,1.17
2022-11-25T00:52:13.779Z,1.67
2022-11-25T00:54:44.779Z,1.73
2022-11-25T00:57:13.401Z,1.73
2022-11-25T00:59:43.866Z,1.65
2022-11-25T01:02:15.047Z,1.42
2022-11-25T01:04:44.321Z,1.42
2022-11-25T01:07:14.356Z,1.70
2022-11-25T01:09:42.699Z,1.70
2022-11-25T01:12:11.079Z,1.90
2022-11-25T01:14:41.383Z,1.75
2022-11-25T01:17:09.813Z,1.30
2022-11-25T01:19:46.424Z,1.75
2022-11-25T01:22:16.313Z,2.05
2022-11-25T01:24:45.927Z,1.80
2022-11-25T01:27:14.469Z,1.67
2022-11-25T01:29:45.361Z,1.63
2022-11-25T01:32:14.070Z,1.70
2022-11-25T01:34:42.312Z,1.80
2022-11-25T01:37:13.299Z,1.63
2022-11-25T01:39:43.157Z,1.65
2022-11-25T01:42:11.535Z,1.92
2022-11-25T01:44:43.651Z,1.92
2022-11-25T01:47:17.126Z,1.80
2022-11-25T01:49:48.290Z,1.65
2022-11-25T01:52:22.915Z,1.25
2022-11-25T01:54:57.048Z,1.70
2022-11-25T01:57:30.852Z,2.00
2022-11-25T02:00:02.495Z,1.58
2022-11-25T02:02:31.149Z,1.60
2022-11-25T02:05:02.827Z,2.45
2022-11-25T02:07:36.206Z,1.75
2022-11-25T02:10:11.016Z,2.53
2022-11-25T02:12:41.938Z,2.08
2022-11-25T02:15:11.039Z,1.90
2022-11-25T02:17:39.940Z,1.58
2022-11-25T02:20:10.823Z,1.60
2022-11-25T02:22:53.257Z,1.67
2022-11-25T02:25:25.701Z,1.25
2022-11-25T02:27:59.121Z,1.30
2022-11-25T02:30:27.436Z,1.63
2022-11-25T02:32:55.745Z,1.30
2022-11-25T02:35:31.252Z,1.40
2022-11-25T02:38:04.913Z,1.45
2022-11-25T02:40:39.124Z,1.50
2022-11-25T02:43:07.342Z,1.40
2022-11-25T02:45:46.422Z,1.23
2022-11-25T02:48:15.363Z,0.98
2022-11-25T02:50:43.769Z,1.00
2022-11-25T02:53:13.141Z,1.30
2022-11-25T02:55:44.000Z,1.73
2022-11-25T02:58:12.413Z,1.25
2022-11-25T03:00:41.733Z,1.33
2022-11-25T03:03:10.048Z,1.60
2022-11-25T03:05:38.356Z,1.43
2022-11-25T03:08:07.309Z,1.77
2022-11-25T03:10:37.186Z,1.48
2022-11-25T03:13:07.771Z,1.60
2022-11-25T03:15:36.878Z,1.67
2022-11-25T03:18:06.259Z,1.20
2022-11-25T03:20:35.469Z,1.33
2022-11-25T03:23:04.051Z,1.52
2022-11-25T03:25:32.348Z,1.10
2022-11-25T03:28:02.654Z,1.42
2022-11-25T03:30:33.046Z,1.40
2022-11-25T03:33:03.815Z,1.77
2022-11-25T03:35:32.055Z,1.27
2022-11-25T03:38:00.548Z,1.60
2022-11-25T03:40:29.378Z,1.33
2022-11-25T03:43:08.856Z,1.40
2022-11-25T03:45:49.586Z,1.20
2022-11-25T03:48:17.858Z,1.85
2022-11-25T03:50:46.299Z,1.70
2022-11-25T03:53:14.918Z,1.20
2022-11-25T03:55:43.178Z,2.07
2022-11-25T03:58:11.565Z,1.30
2022-11-25T04:00:41.606Z,1.25
2022-11-25T04:03:10.352Z,1.45
2022-11-25T04:05:40.968Z,1.75
2022-11-25T04:08:11.392Z,1.88
2022-11-25T04:10:39.704Z,1.50
2022-11-25T04:13:07.595Z,1.85
2022-11-25T04:15:35.902Z,1.73
2022-11-25T04:18:06.060Z,1.63
2022-11-25T04:20:34.324Z,1.58
2022-11-25T04:23:02.654Z,1.58
2022-11-25T04:25:30.907Z,1.40
2022-11-25T04:27:59.184Z,1.48
2022-11-25T04:30:27.488Z,1.30
2022-11-25T04:32:55.817Z,1.17
2022-11-25T04:35:25.794Z,1.45
2022-11-25T04:37:55.295Z,1.67
2022-11-25T04:40:23.559Z,1.40
2022-11-25T04:42:54.935Z,1.40
2022-11-25T04:45:26.539Z,1.50
2022-11-25T04:47:54.779Z,1.50
2022-11-25T04:50:25.474Z,1.42
2022-11-25T04:52:53.687Z,1.40
2022-11-25T04:55:23.440Z,1.40
2022-11-25T04:57:51.683Z,1.42
2022-11-25T05:00:20.355Z,1.50
2022-11-25T05:02:48.944Z,1.60
2022-11-25T05:05:18.351Z,2.07
2022-11-25T05:07:48.457Z,1.30
2022-11-25T05:10:17.139Z,1.58
2022-11-25T05:12:45.512Z,1.33
2022-11-25T05:15:13.831Z,1.27
2022-11-25T05:17:42.476Z,1.08
2022-11-25T05:20:13.361Z,1.92
2022-11-25T05:22:41.638Z,0.98
2022-11-25T05:25:12.114Z,1.50
2022-11-25T05:27:40.746Z,1.40
2022-11-25T05:30:11.845Z,1.13
2022-11-25T05:32:41.122Z,1.25
2022-11-25T05:35:10.489Z,1.35
2022-11-25T05:37:38.923Z,1.40
2022-11-25T05:40:08.483Z,1.20
2022-11-25T05:42:39.243Z,1.20
2022-11-25T05:45:08.644Z,1.25
2022-11-25T05:47:36.942Z,1.20
2022-11-25T05:50:05.843Z,1.30
2022-11-25T05:52:34.634Z,1.70
2022-11-25T05:55:03.562Z,1.30
2022-11-25T05:57:36.033Z,1.65
2022-11-25T06:00:07.657Z,1.30
2022-11-25T06:02:36.129Z,1.35
2022-11-25T06:05:04.834Z,1.13
2022-11-25T06:07:34.956Z,2.00
2022-11-25T06:10:03.628Z,1.45
2022-11-25T06:12:34.878Z,1.60
2022-11-25T06:15:04.640Z,1.60
2022-11-25T06:17:34.626Z,1.43
2022-11-25T06:20:02.994Z,1.65
2022-11-25T06:22:31.634Z,1.23
2022-11-25T06:25:03.525Z,1.23
2022-11-25T06:27:56.809Z,1.42
2022-11-25T06:30:21.048Z,1.47
2022-11-25T06:32:51.202Z,1.33
2022-11-25T06:35:19.567Z,1.50
2022-11-25T06:37:49.494Z,1.60
2022-11-25T06:40:18.002Z,1.42
2022-11-25T06:42:46.756Z,1.30
2022-11-25T06:45:15.082Z,1.75
2022-11-25T06:47:43.327Z,1.23
2022-11-25T06:50:13.944Z,1.25
2022-11-25T06:52:42.406Z,1.45
2022-11-25T06:55:11.024Z,1.50
2022-11-25T06:57:39.657Z,1.85
2022-11-25T07:00:11.092Z,2.28
2022-11-25T07:02:44.016Z,1.48
2022-11-25T07:05:17.083Z,1.90
2022-11-25T07:07:45.513Z,1.80
2022-11-25T07:10:13.801Z,1.45
2022-11-25T07:12:42.057Z,1.53
2022-11-25T07:15:12.598Z,1.55
2022-11-25T07:17:41.054Z,1.38
2022-11-25T07:20:10.328Z,1.40
2022-11-25T07:22:40.094Z,1.73
2022-11-25T07:25:09.507Z,1.60
2022-11-25T07:27:39.088Z,1.55
2022-11-25T07:31:09.468Z,1.60
2022-11-25T07:33:01.270Z,1.63
2022-11-25T07:35:29.731Z,1.42
2022-11-25T07:37:59.519Z,1.47
2022-11-25T07:40:27.849Z,1.47
2022-11-25T07:42:56.415Z,1.48
2022-11-25T07:45:25.952Z,1.80
2022-11-25T07:47:54.196Z,1.80
2022-11-25T07:50:24.777Z,1.33
2022-11-25T07:52:53.106Z,1.48
2022-11-25T07:55:24.665Z,1.67
2022-11-25T07:57:53.017Z,1.38
2022-11-25T08:00:23.028Z,2.00
2022-11-25T08:02:53.159Z,1.80
2022-11-25T08:05:21.709Z,1.53
2022-11-25T08:07:50.151Z,1.20
2022-11-25T08:10:18.607Z,2.00
2022-11-25T08:12:48.616Z,1.97
2022-11-25T08:15:17.227Z,1.85
2022-11-25T08:17:45.859Z,1.75
2022-11-25T08:20:14.668Z,1.70
2022-11-25T08:22:43.032Z,1.77
2022-11-25T08:25:14.568Z,1.60
2022-11-25T08:27:42.906Z,1.73
2022-11-25T08:30:14.686Z,1.52
2022-11-25T08:32:43.931Z,1.63
2022-11-25T08:35:12.289Z,1.80
2022-11-25T08:37:41.464Z,1.70
2022-11-25T08:40:10.878Z,1.90
2022-11-25T08:42:46.662Z,2.50
2022-11-25T08:45:23.739Z,1.85
2022-11-25T08:47:52.108Z,1.83
2022-11-25T08:50:20.540Z,1.83
2022-11-25T08:52:48.872Z,1.95
2022-11-25T08:55:17.251Z,1.58
2022-11-25T08:57:47.801Z,1.90
2022-11-25T09:00:19.293Z,1.40
2022-11-25T09:02:48.016Z,1.60
2022-11-25T09:05:19.263Z,1.70
2022-11-25T09:07:47.730Z,1.77
2022-11-25T09:10:18.039Z,1.73
2022-11-25T09:12:46.386Z,2.72
2022-11-25T09:15:14.811Z,1.80
2022-11-25T09:17:44.555Z,1.60
2022-11-25T09:20:13.587Z,1.85
2022-11-25T09:22:41.873Z,1.85
2022-11-25T09:25:11.048Z,2.30
2022-11-25T09:27:39.996Z,2.05
2022-11-25T09:30:09.471Z,1.70
2022-11-25T09:32:37.823Z,1.88
2022-11-25T09:35:08.601Z,2.33
2022-11-25T09:37:37.279Z,1.88
2022-11-25T09:40:08.002Z,1.67
2022-11-25T09:43:10.990Z,2.00
2022-11-25T09:46:05.620Z,2.80
2022-11-25T09:48:53.568Z,1.73
2022-11-25T09:51:26.084Z,1.33
2022-11-25T09:54:00.972Z,1.85
2022-11-25T09:56:36.129Z,1.70
2022-11-25T09:59:11.682Z,1.70
2022-11-25T10:01:49.813Z,1.88
2022-11-25T10:04:26.000Z,1.95
2022-11-25T10:07:01.245Z,1.83
2022-11-25T10:09:31.968Z,1.80
2022-11-25T10:12:04.662Z,1.35
2022-11-25T10:14:38.762Z,1.88
2022-11-25T10:17:13.566Z,1.58
2022-11-25T10:19:54.444Z,2.05
2022-11-25T10:22:27.540Z,1.75
2022-11-25T10:24:59.450Z,1.52
2022-11-25T10:27:37.776Z,1.77
2022-11-25T10:30:16.661Z,1.27
2022-11-25T10:32:50.716Z,1.25
2022-11-25T10:35:33.286Z,1.60
2022-11-25T10:38:05.750Z,1.40
2022-11-25T10:40:37.354Z,1.85
2022-11-25T10:43:13.575Z,1.20
2022-11-25T10:45:50.556Z,1.70
2022-11-25T10:48:32.636Z,1.90
2022-11-25T10:51:12.212Z,2.42
2022-11-25T10:53:41.975Z,1.77
2022-11-25T10:56:13.529Z,1.80
2022-11-25T10:58:42.940Z,2.03
2022-11-25T11:01:19.107Z,1.85
2022-11-25T11:03:52.913Z,1.65
2022-11-25T11:06:32.598Z,1.60
2022-11-25T11:09:03.175Z,2.45
2022-11-25T11:11:32.688Z,2.07
2022-11-25T11:14:14.340Z,2.15
2022-11-25T11:16:51.589Z,2.10
2022-11-25T11:19:24.780Z,1.63
2022-11-25T11:21:54.262Z,2.13
2022-11-25T11:24:30.251Z,2.78
2022-11-25T11:27:07.202Z,2.10
2022-11-25T11:29:35.578Z,2.50
2022-11-25T11:32:06.447Z,2.20
2022-11-25T11:34:50.322Z,2.83
2022-11-25T11:37:30.353Z,2.88
2022-11-25T11:40:24.426Z,1.85
2022-11-25T11:43:04.130Z,1.67
2022-11-25T11:45:48.250Z,2.03
2022-11-25T11:48:26.688Z,1.77
2022-11-25T11:51:02.924Z,1.85
2022-11-25T11:53:38.130Z,1.90
2022-11-25T11:59:30.237Z,1.90
2022-11-25T12:02:16.693Z,1.70
2022-11-25T12:04:51.265Z,1.58
2022-11-25T12:07:25.248Z,3.05
2022-11-25T12:09:59.223Z,2.58
2022-11-25T12:12:37.072Z,2.95
2022-11-25T12:15:13.564Z,2.50
2022-11-25T12:17:47.575Z,2.00
2022-11-25T12:20:23.726Z,2.72
2022-11-25T12:22:59.615Z,1.92
2022-11-25T12:25:36.141Z,2.65
2022-11-25T12:28:12.959Z,2.00
2022-11-25T12:30:52.039Z,2.20
2022-11-25T12:33:26.524Z,1.88
2022-11-25T12:36:02.335Z,2.20
2022-11-25T12:38:39.638Z,1.60
2022-11-25T12:41:20.788Z,2.28
2022-11-25T12:43:53.400Z,1.95
2022-11-25T12:46:34.820Z,1.90
2022-11-25T12:49:04.346Z,2.05
2022-11-25T12:52:06.611Z,1.88
2022-11-25T12:54:52.336Z,2.08
2022-11-25T12:57:51.666Z,2.55
2022-11-25T13:00:42.504Z,1.80
2022-11-25T13:03:36.219Z,2.00
2022-11-25T13:06:32.266Z,2.20
2022-11-25T13:09:03.908Z,1.90
2022-11-25T13:12:17.787Z,2.50
2022-11-25T13:15:28.440Z,2.00
2022-11-25T13:18:02.894Z,2.70
2022-11-25T13:20:38.190Z,2.38
2022-11-25T13:23:22.989Z,2.42
2022-11-25T13:25:53.140Z,2.00
2022-11-25T13:28:33.333Z,2.53
2022-11-25T13:31:22.510Z,2.67
2022-11-25T13:34:08.307Z,3.28
2022-11-25T13:36:48.638Z,2.38
2022-11-25T13:39:18.720Z,2.25
2022-11-25T13:42:00.382Z,1.90
2022-11-25T13:44:35.273Z,1.98
2022-11-25T13:47:26.349Z,2.00
2022-11-25T13:49:57.664Z,2.17
2022-11-25T13:52:42.552Z,1.67
2022-11-25T13:55:31.953Z,1.70
2022-11-25T13:58:23.466Z,2.60
2022-11-25T14:01:24.846Z,3.33
2022-11-25T14:04:01.980Z,1.98
2022-11-25T14:07:06.095Z,2.00
2022-11-25T14:10:06.156Z,1.67
2022-11-25T14:12:45.878Z,1.40
2022-11-25T14:15:38.116Z,2.00
2022-11-25T14:21:51.658Z,1.55
2022-11-25T14:24:37.432Z,1.65
2022-11-25T14:27:13.252Z,1.83
2022-11-25T14:29:46.571Z,2.03
2022-11-25T14:32:19.927Z,2.10
2022-11-25T14:34:50.246Z,1.88
2022-11-25T14:37:24.937Z,1.58
2022-11-25T14:40:01.693Z,1.67
2022-11-25T14:42:36.490Z,1.50
2022-11-25T14:45:05.481Z,2.03
2022-11-25T14:47:37.528Z,1.67
2022-11-25T14:53:08.907Z,2.05
2022-11-25T14:55:38.395Z,1.90
2022-11-25T14:58:13.787Z,1.58
2022-11-25T15:00:52.641Z,2.33
2022-11-25T15:03:21.962Z,2.10
2022-11-25T15:05:57.190Z,2.00
2022-11-25T15:08:26.530Z,1.95
2022-11-25T15:10:56.963Z,1.83
2022-11-25T15:13:32.847Z,1.80
2022-11-25T15:16:08.088Z,2.28
2022-11-25T15:18:37.144Z,2.40
2022-11-25T15:21:06.510Z,2.00
2022-11-25T15:23:39.335Z,2.20
2022-11-25T15:26:18.522Z,2.50
2022-11-25T15:28:49.000Z,2.80
2022-11-25T15:31:22.671Z,2.38
2022-11-25T15:33:58.300Z,2.60
2022-11-25T15:36:27.449Z,3.25
2022-11-25T15:38:56.645Z,2.40
2022-11-25T15:41:41.192Z,2.80
2022-11-25T15:44:21.553Z,2.70
2022-11-25T15:46:58.523Z,2.45
2022-11-25T15:49:30.306Z,2.05
2022-11-25T15:52:05.673Z,3.53
2022-11-25T15:54:41.273Z,3.00
2022-11-25T15:57:18.726Z,3.17
2022-11-25T16:00:06.252Z,2.67
2022-11-25T16:02:40.397Z,2.70
2022-11-25T16:05:34.463Z,3.10
2022-11-25T16:08:36.045Z,3.38
2022-11-25T16:11:19.340Z,2.83
2022-11-25T16:13:55.943Z,2.58
2022-11-25T16:16:39.793Z,2.20
2022-11-25T16:19:17.961Z,3.05
2022-11-25T16:21:56.918Z,2.78
2022-11-25T16:24:37.986Z,1.90
2022-11-25T16:27:09.118Z,2.67
2022-11-25T16:29:41.412Z,3.33
2022-11-25T16:32:17.526Z,2.40
2022-11-25T16:34:46.672Z,3.72
2022-11-25T16:37:15.093Z,3.30
2022-11-25T16:39:45.412Z,2.60
2022-11-25T16:42:22.944Z,2.22
2022-11-25T16:44:52.959Z,2.58
2022-11-25T16:47:24.577Z,2.50
2022-11-25T16:49:53.163Z,3.40
2022-11-25T16:52:21.480Z,2.03
2022-11-25T16:54:49.978Z,3.08
2022-11-25T16:57:22.849Z,2.80
2022-11-25T16:59:58.756Z,2.70
2022-11-25T17:02:28.928Z,3.20
2022-11-25T17:05:00.143Z,2.70
2022-11-25T17:07:33.156Z,3.55
2022-11-25T17:10:02.128Z,3.83
2022-11-25T17:12:34.557Z,3.25
2022-11-25T17:15:05.747Z,3.70
2022-11-25T17:17:35.926Z,4.25
2022-11-25T17:20:04.462Z,4.18
2022-11-25T17:22:39.383Z,8.40
2022-11-25T17:25:08.778Z,7.25
2022-11-25T17:27:37.536Z,3.97
2022-11-25T17:30:08.910Z,4.07
2022-11-25T17:32:40.076Z,4.25
2022-11-25T17:35:20.896Z,5.70
2022-11-25T17:37:51.113Z,3.35
2022-11-25T17:40:22.008Z,3.70
2022-11-25T17:42:50.383Z,3.63
2022-11-25T17:45:20.763Z,3.72
2022-11-25T17:47:52.436Z,4.97
2022-11-25T17:50:23.991Z,4.30
2022-11-25T17:52:53.260Z,4.30
2022-11-25T17:55:23.010Z,4.20
2022-11-25T17:57:53.897Z,4.70
2022-11-25T18:00:23.280Z,3.72
2022-11-25T18:02:55.765Z,5.45
2022-11-25T18:05:28.613Z,4.03
2022-11-25T18:08:00.014Z,3.42
2022-11-25T18:10:29.143Z,3.20
2022-11-25T18:12:59.612Z,4.22
2022-11-25T18:15:38.845Z,5.10
2022-11-25T18:18:20.425Z,4.47
2022-11-25T18:20:50.615Z,5.40
2022-11-25T18:23:19.547Z,5.03
2022-11-25T18:25:48.551Z,4.95
2022-11-25T18:28:20.074Z,5.43
2022-11-25T18:30:49.794Z,5.15
2022-11-25T18:33:20.838Z,4.05
2022-11-25T18:35:50.186Z,4.85
2022-11-25T18:38:18.704Z,4.30
2022-11-25T18:40:51.978Z,4.60
2022-11-25T18:43:25.635Z,4.55
2022-11-25T18:45:55.886Z,4.00
2022-11-25T18:48:28.130Z,3.83
2022-11-25T18:50:57.569Z,3.75
2022-11-25T18:53:26.391Z,3.50
2022-11-25T18:55:55.747Z,3.22
2022-11-25T18:58:27.213Z,3.70
2022-11-25T19:01:02.663Z,4.03
2022-11-25T19:03:33.072Z,3.30
2022-11-25T19:06:03.402Z,3.22
2022-11-25T19:08:31.762Z,3.78
2022-11-25T19:11:01.937Z,3.17
2022-11-25T19:13:34.083Z,3.47
2022-11-25T19:16:09.796Z,3.22
2022-11-25T19:18:41.319Z,4.05
2022-11-25T19:21:12.332Z,4.65
2022-11-25T19:23:41.731Z,4.13
2022-11-25T19:26:19.405Z,4.50
2022-11-25T19:28:51.601Z,7.07
2022-11-25T19:31:21.252Z,7.17
2022-11-25T19:33:52.754Z,7.80
2022-11-25T19:36:25.405Z,8.40
2022-11-25T19:38:54.596Z,5.35
2022-11-25T19:41:23.015Z,4.85
2022-11-25T19:43:51.802Z,4.07
2022-11-25T19:46:30.085Z,4.00
2022-11-25T19:49:06.142Z,3.20
2022-11-25T19:51:36.070Z,3.95
2022-11-25T19:54:13.515Z,4.07
2022-11-25T19:56:42.763Z,5.10
2022-11-25T19:59:13.576Z,5.32
2022-11-25T20:01:45.880Z,4.97
2022-11-25T20:04:21.297Z,4.93
2022-11-25T20:06:50.870Z,5.13
2022-11-25T20:09:19.153Z,4.68
2022-11-25T20:11:47.606Z,4.15
2022-11-25T20:14:18.689Z,3.42
2022-11-25T20:16:47.670Z,3.50
2022-11-25T20:19:19.455Z,3.00
2022-11-25T20:21:48.741Z,3.15
2022-11-25T20:24:20.555Z,3.50
2022-11-25T20:26:50.384Z,3.93
2022-11-25T20:29:20.883Z,3.40
2022-11-25T20:31:51.483Z,3.70
2022-11-25T20:34:24.790Z,3.45
2022-11-25T20:36:53.567Z,4.43
2022-11-25T20:39:23.896Z,3.67
2022-11-25T20:41:53.814Z,3.33
2022-11-25T20:44:22.808Z,4.50
2022-11-25T20:46:54.507Z,5.07
2022-11-25T20:49:27.616Z,10.40
2022-11-25T20:51:56.391Z,8.52
2022-11-25T20:54:25.281Z,4.95
2022-11-25T20:56:57.469Z,2.90
2022-11-25T20:59:25.930Z,3.72
2022-11-25T21:01:54.965Z,4.18
2022-11-25T21:04:25.186Z,4.38
2022-11-25T21:06:53.413Z,3.63
2022-11-25T21:09:26.290Z,4.25
2022-11-25T21:11:54.955Z,3.50
2022-11-25T21:14:23.651Z,4.50
2022-11-25T21:16:52.529Z,4.47
2022-11-25T21:19:20.999Z,5.03
2022-11-25T21:21:59.409Z,3.50
2022-11-25T21:24:32.166Z,6.93
2022-11-25T21:27:03.947Z,4.17
2022-11-25T21:29:33.491Z,3.20
2022-11-25T21:32:02.207Z,3.58
2022-11-25T21:34:31.028Z,3.13
2022-11-25T21:37:03.706Z,3.20
2022-11-25T21:39:35.026Z,3.10
2022-11-25T21:42:15.650Z,3.45
2022-11-25T21:44:46.979Z,2.97
2022-11-25T21:47:18.194Z,2.73
2022-11-25T21:49:46.692Z,3.55
2022-11-25T21:52:18.127Z,2.90
2022-11-25T21:54:47.649Z,3.58
2022-11-25T21:57:17.855Z,4.53
2022-11-25T21:59:47.475Z,9.48
2022-11-25T22:02:19.927Z,4.38
2022-11-25T22:04:49.218Z,3.77
2022-11-25T22:07:19.014Z,4.93
2022-11-25T22:09:47.409Z,26.05
2022-11-25T22:12:27.001Z,9.25
2022-11-25T22:14:56.048Z,5.07
2022-11-25T22:17:26.015Z,5.13
2022-11-25T22:19:55.079Z,4.07
2022-11-25T22:22:26.169Z,3.63
2022-11-25T22:24:54.498Z,3.78
2022-11-25T22:27:24.878Z,5.28
2022-11-25T22:29:54.244Z,10.63
2022-11-25T22:32:23.642Z,10.73
2022-11-25T22:34:59.323Z,10.75
2022-11-25T22:37:30.681Z,5.78
2022-11-25T22:39:59.205Z,5.63
2022-11-25T22:42:29.708Z,4.07
2022-11-25T22:45:00.050Z,4.40
2022-11-25T22:47:31.788Z,3.78
2022-11-25T22:50:02.693Z,3.53
2022-11-25T22:52:34.972Z,3.42
2022-11-25T22:55:16.095Z,3.85
2022-11-25T22:57:44.698Z,3.20
2022-11-25T23:00:18.721Z,5.30
2022-11-25T23:02:47.631Z,4.05
2022-11-25T23:05:19.327Z,4.07
2022-11-25T23:07:49.340Z,3.35
2022-11-25T23:10:22.072Z,2.67
2022-11-25T23:12:50.867Z,2.97
2022-11-25T23:15:21.340Z,2.70
2022-11-25T23:17:52.165Z,3.30
2022-11-25T23:20:22.765Z,3.50
2022-11-25T23:22:52.872Z,3.78
2022-11-25T23:25:22.960Z,3.33
2022-11-25T23:27:54.348Z,3.35
2022-11-25T23:30:25.640Z,3.10
2022-11-25T23:32:54.773Z,2.70
2022-11-25T23:35:28.771Z,2.70
2022-11-25T23:37:59.881Z,2.30
2022-11-25T23:40:28.714Z,2.30
2022-11-25T23:42:59.198Z,2.72
2022-11-25T23:45:28.804Z,2.15
2022-11-25T23:47:58.012Z,2.37
2022-11-25T23:50:32.393Z,2.20
2022-11-25T23:53:06.407Z,2.28
2022-11-25T23:55:38.533Z,1.98
2022-11-25T23:58:24.347Z,2.38
